sensor_id;sensor_type;location;lat;lon;timestamp;P1;durP1;ratioP1;P2;durP2;ratioP2
47812;SDS011;34221;45.296;9.516;2022-11-20T00:00:05;60.40;;;36.17;;
47812;SDS011;34221;45.296;9.516;2022-11-20T00:00:21;61.03;;;36.58;;
47812;SDS011;34221;45.296;9.516;2022-11-20T00:00:36;64.18;;;37.90;;
47812;SDS011;34221;45.296;9.516;2022-11-20T00:00:51;62.85;;;37.05;;
47812;SDS011;34221;45.296;9.516;2022-11-20T00:01:13;60.83;;;36.15;;
47812;SDS011;34221;45.296;9.516;2022-11-20T00:01:33;55.92;;;36.17;;
47812;SDS011;34221;45.296;9.516;2022-11-20T00:01:48;55.22;;;35.92;;
47812;SDS011;34221;45.296;9.516;2022-11-20T00:02:02;55.03;;;36.00;;
47812;SDS011;34221;45.296;9.516;2022-11-20T00:02:17;54.78;;;35.53;;
47812;SDS011;34221;45.296;9.516;2022-11-20T00:02:32;56.72;;;35.45;;
47812;SDS011;34221;45.296;9.516;2022-11-20T00:02:47;58.58;;;35.53;;
47812;SDS011;34221;45.296;9.516;2022-11-20T00:03:02;58.25;;;35.90;;
47812;SDS011;34221;45.296;9.516;2022-11-20T00:03:17;56.63;;;35.40;;
47812;SDS011;34221;45.296;9.516;2022-11-20T00:03:32;58.03;;;35.05;;
47812;SDS011;34221;45.296;9.516;2022-11-20T00:03:47;58.65;;;36.05;;
47812;SDS011;34221;45.296;9.516;2022-11-20T00:04:03;55.72;;;36.08;;
47812;SDS011;34221;45.296;9.516;2022-11-20T00:04:18;58.10;;;36.20;;
47812;SDS011;34221;45.296;9.516;2022-11-20T00:04:33;62.43;;;35.87;;
47812;SDS011;34221;45.296;9.516;2022-11-20T00:04:47;63.47;;;35.55;;
47812;SDS011;34221;45.296;9.516;2022-11-20T00:05:02;63.17;;;35.55;;
47812;SDS011;34221;45.296;9.516;2022-11-20T00:05:18;58.42;;;35.90;;
47812;SDS011;34221;45.296;9.516;2022-11-20T00:05:33;58.40;;;35.95;;
47812;SDS011;34221;45.296;9.516;2022-11-20T00:05:48;62.60;;;36.07;;
47812;SDS011;34221;45.296;9.516;2022-11-20T00:06:07;63.77;;;35.47;;
47812;SDS011;34221;45.296;9.516;2022-11-20T00:06:26;60.97;;;35.17;;
47812;SDS011;34221;45.296;9.516;2022-11-20T00:06:42;58.53;;;35.05;;
47812;SDS011;34221;45.296;9.516;2022-11-20T00:06:57;58.53;;;35.03;;
47812;SDS011;34221;45.296;9.516;2022-11-20T00:07:12;61.53;;;36.20;;
47812;SDS011;34221;45.296;9.516;2022-11-20T00:07:27;61.00;;;35.75;;
47812;SDS011;34221;45.296;9.516;2022-11-20T00:07:42;60.17;;;35.42;;
47812;SDS011;34221;45.296;9.516;2022-11-20T00:07:57;59.25;;;35.47;;
47812;SDS011;34221;45.296;9.516;2022-11-20T00:08:12;52.80;;;33.85;;
47812;SDS011;34221;45.296;9.516;2022-11-20T00:08:27;51.38;;;34.45;;
47812;SDS011;34221;45.296;9.516;2022-11-20T00:08:42;57.03;;;36.15;;
47812;SDS011;34221;45.296;9.516;2022-11-20T00:08:58;60.63;;;37.15;;
47812;SDS011;34221;45.296;9.516;2022-11-20T00:09:15;61.50;;;37.42;;
47812;SDS011;34221;45.296;9.516;2022-11-20T00:09:30;64.93;;;35.83;;
47812;SDS011;34221;45.296;9.516;2022-11-20T00:09:45;63.15;;;35.60;;
47812;SDS011;34221;45.296;9.516;2022-11-20T00:10:00;59.35;;;35.83;;
47812;SDS011;34221;45.296;9.516;2022-11-20T00:10:16;63.28;;;37.30;;
47812;SDS011;34221;45.296;9.516;2022-11-20T00:10:31;60.03;;;36.38;;
47812;SDS011;34221;45.296;9.516;2022-11-20T00:10:46;59.28;;;36.10;;
47812;SDS011;34221;45.296;9.516;2022-11-20T00:11:04;64.97;;;36.53;;
47812;SDS011;34221;45.296;9.516;2022-11-20T00:11:22;62.65;;;35.83;;
47812;SDS011;34221;45.296;9.516;2022-11-20T00:11:39;61.58;;;36.22;;
47812;SDS011;34221;45.296;9.516;2022-11-20T00:11:54;61.72;;;35.83;;
47812;SDS011;34221;45.296;9.516;2022-11-20T00:12:09;63.85;;;36.13;;
47812;SDS011;34221;45.296;9.516;2022-11-20T00:12:24;62.20;;;36.93;;
47812;SDS011;34221;45.296;9.516;2022-11-20T00:12:38;60.47;;;36.27;;
47812;SDS011;34221;45.296;9.516;2022-11-20T00:12:53;61.67;;;36.08;;
47812;SDS011;34221;45.296;9.516;2022-11-20T00:13:08;60.45;;;35.60;;
47812;SDS011;34221;45.296;9.516;2022-11-20T00:13:24;59.08;;;34.90;;
47812;SDS011;34221;45.296;9.516;2022-11-20T00:13:39;61.22;;;35.92;;
47812;SDS011;34221;45.296;9.516;2022-11-20T00:13:55;60.30;;;37.28;;
47812;SDS011;34221;45.296;9.516;2022-11-20T00:14:12;66.53;;;37.55;;
47812;SDS011;34221;45.296;9.516;2022-11-20T00:14:27;66.57;;;35.95;;
47812;SDS011;34221;45.296;9.516;2022-11-20T00:14:43;60.25;;;35.97;;
47812;SDS011;34221;45.296;9.516;2022-11-20T00:14:57;58.70;;;35.70;;
47812;SDS011;34221;45.296;9.516;2022-11-20T00:15:12;61.92;;;36.17;;
47812;SDS011;34221;45.296;9.516;2022-11-20T00:15:28;60.67;;;36.05;;
47812;SDS011;34221;45.296;9.516;2022-11-20T00:15:43;58.80;;;36.10;;
47812;SDS011;34221;45.296;9.516;2022-11-20T00:15:58;62.25;;;37.17;;
47812;SDS011;34221;45.296;9.516;2022-11-20T00:16:16;60.47;;;37.10;;
47812;SDS011;34221;45.296;9.516;2022-11-20T00:16:34;62.80;;;37.45;;
47812;SDS011;34221;45.296;9.516;2022-11-20T00:16:49;65.57;;;37.50;;
47812;SDS011;34221;45.296;9.516;2022-11-20T00:17:04;62.85;;;36.75;;
47812;SDS011;34221;45.296;9.516;2022-11-20T00:17:19;58.10;;;35.83;;
47812;SDS011;34221;45.296;9.516;2022-11-20T00:17:34;61.13;;;35.35;;
47812;SDS011;34221;45.296;9.516;2022-11-20T00:17:48;61.65;;;35.83;;
47812;SDS011;34221;45.296;9.516;2022-11-20T00:18:03;58.92;;;36.78;;
47812;SDS011;34221;45.296;9.516;2022-11-20T00:18:18;59.22;;;37.06;;
47812;SDS011;34221;45.296;9.516;2022-11-20T00:18:34;60.95;;;37.05;;
47812;SDS011;34221;45.296;9.516;2022-11-20T00:18:49;62.42;;;36.65;;
47812;SDS011;34221;45.296;9.516;2022-11-20T00:19:05;65.20;;;36.92;;
47812;SDS011;34221;45.296;9.516;2022-11-20T00:19:20;67.82;;;38.20;;
47812;SDS011;34221;45.296;9.516;2022-11-20T00:19:35;66.00;;;38.10;;
47812;SDS011;34221;45.296;9.516;2022-11-20T00:19:50;62.17;;;37.10;;
47812;SDS011;34221;45.296;9.516;2022-11-20T00:20:05;61.92;;;36.92;;
47812;SDS011;34221;45.296;9.516;2022-11-20T00:20:20;62.25;;;36.17;;
47812;SDS011;34221;45.296;9.516;2022-11-20T00:20:35;63.05;;;36.72;;
47812;SDS011;34221;45.296;9.516;2022-11-20T00:20:50;61.65;;;36.20;;
47812;SDS011;34221;45.296;9.516;2022-11-20T00:21:12;58.22;;;35.33;;
47812;SDS011;34221;45.296;9.516;2022-11-20T00:21:30;60.13;;;38.33;;
47812;SDS011;34221;45.296;9.516;2022-11-20T00:21:45;59.88;;;37.45;;
47812;SDS011;34221;45.296;9.516;2022-11-20T00:22:01;62.30;;;35.47;;
47812;SDS011;34221;45.296;9.516;2022-11-20T00:22:15;65.28;;;36.42;;
47812;SDS011;34221;45.296;9.516;2022-11-20T00:22:30;65.30;;;37.63;;
47812;SDS011;34221;45.296;9.516;2022-11-20T00:22:45;63.45;;;36.67;;
47812;SDS011;34221;45.296;9.516;2022-11-20T00:23:01;59.78;;;35.00;;
47812;SDS011;34221;45.296;9.516;2022-11-20T00:23:16;58.30;;;35.55;;
47812;SDS011;34221;45.296;9.516;2022-11-20T00:23:31;59.42;;;37.25;;
47812;SDS011;34221;45.296;9.516;2022-11-20T00:23:47;64.43;;;38.60;;
47812;SDS011;34221;45.296;9.516;2022-11-20T00:24:05;67.72;;;38.47;;
47812;SDS011;34221;45.296;9.516;2022-11-20T00:24:22;67.45;;;37.92;;
47812;SDS011;34221;45.296;9.516;2022-11-20T00:24:37;64.40;;;37.22;;
47812;SDS011;34221;45.296;9.516;2022-11-20T00:24:52;64.50;;;37.03;;
47812;SDS011;34221;45.296;9.516;2022-11-20T00:25:07;67.38;;;38.97;;
47812;SDS011;34221;45.296;9.516;2022-11-20T00:25:22;67.28;;;39.33;;
47812;SDS011;34221;45.296;9.516;2022-11-20T00:25:37;63.72;;;37.47;;
47812;SDS011;34221;45.296;9.516;2022-11-20T00:25:52;58.92;;;36.25;;
47812;SDS011;34221;45.296;9.516;2022-11-20T00:26:08;60.00;;;36.10;;
47812;SDS011;34221;45.296;9.516;2022-11-20T00:26:26;58.78;;;36.78;;
47812;SDS011;34221;45.296;9.516;2022-11-20T00:26:42;60.17;;;37.80;;
47812;SDS011;34221;45.296;9.516;2022-11-20T00:26:57;61.72;;;37.47;;
47812;SDS011;34221;45.296;9.516;2022-11-20T00:27:12;63.38;;;37.00;;
47812;SDS011;34221;45.296;9.516;2022-11-20T00:27:27;64.70;;;37.38;;
47812;SDS011;34221;45.296;9.516;2022-11-20T00:27:42;67.80;;;38.67;;
47812;SDS011;34221;45.296;9.516;2022-11-20T00:27:57;65.70;;;37.55;;
47812;SDS011;34221;45.296;9.516;2022-11-20T00:28:13;59.60;;;35.50;;
47812;SDS011;34221;45.296;9.516;2022-11-20T00:28:28;61.80;;;36.58;;
47812;SDS011;34221;45.296;9.516;2022-11-20T00:28:43;63.47;;;37.63;;
47812;SDS011;34221;45.296;9.516;2022-11-20T00:29:03;64.03;;;38.70;;
47812;SDS011;34221;45.296;9.516;2022-11-20T00:29:18;63.38;;;38.65;;
47812;SDS011;34221;45.296;9.516;2022-11-20T00:29:32;64.15;;;38.65;;
47812;SDS011;34221;45.296;9.516;2022-11-20T00:29:47;63.45;;;38.47;;
47812;SDS011;34221;45.296;9.516;2022-11-20T00:30:03;66.10;;;38.15;;
47812;SDS011;34221;45.296;9.516;2022-11-20T00:30:19;65.35;;;38.10;;
47812;SDS011;34221;45.296;9.516;2022-11-20T00:30:34;59.30;;;37.60;;
47812;SDS011;34221;45.296;9.516;2022-11-20T00:30:49;61.28;;;37.50;;
47812;SDS011;34221;45.296;9.516;2022-11-20T00:31:04;61.40;;;37.80;;
47812;SDS011;34221;45.296;9.516;2022-11-20T00:31:23;59.72;;;37.13;;
47812;SDS011;34221;45.296;9.516;2022-11-20T00:31:39;61.50;;;37.33;;
47812;SDS011;34221;45.296;9.516;2022-11-20T00:31:54;61.92;;;37.00;;
47812;SDS011;34221;45.296;9.516;2022-11-20T00:32:09;64.78;;;36.92;;
47812;SDS011;34221;45.296;9.516;2022-11-20T00:32:24;63.67;;;37.17;;
47812;SDS011;34221;45.296;9.516;2022-11-20T00:32:39;59.60;;;36.67;;
47812;SDS011;34221;45.296;9.516;2022-11-20T00:32:55;63.22;;;37.42;;
47812;SDS011;34221;45.296;9.516;2022-11-20T00:33:11;67.35;;;38.42;;
47812;SDS011;34221;45.296;9.516;2022-11-20T00:33:27;67.15;;;39.67;;
47812;SDS011;34221;45.296;9.516;2022-11-20T00:33:42;69.15;;;40.05;;
47812;SDS011;34221;45.296;9.516;2022-11-20T00:33:58;64.63;;;37.20;;
47812;SDS011;34221;45.296;9.516;2022-11-20T00:34:13;62.65;;;36.88;;
47812;SDS011;34221;45.296;9.516;2022-11-20T00:34:28;61.85;;;36.80;;
47812;SDS011;34221;45.296;9.516;2022-11-20T00:34:43;62.72;;;37.45;;
47812;SDS011;34221;45.296;9.516;2022-11-20T00:34:57;66.22;;;38.78;;
47812;SDS011;34221;45.296;9.516;2022-11-20T00:35:12;64.63;;;38.22;;
47812;SDS011;34221;45.296;9.516;2022-11-20T00:35:27;67.03;;;38.83;;
47812;SDS011;34221;45.296;9.516;2022-11-20T00:35:42;70.07;;;39.17;;
47812;SDS011;34221;45.296;9.516;2022-11-20T00:36:04;67.78;;;39.45;;
47812;SDS011;34221;45.296;9.516;2022-11-20T00:36:22;66.38;;;38.70;;
47812;SDS011;34221;45.296;9.516;2022-11-20T00:36:39;66.78;;;39.63;;
47812;SDS011;34221;45.296;9.516;2022-11-20T00:36:54;66.30;;;38.73;;
47812;SDS011;34221;45.296;9.516;2022-11-20T00:37:09;69.43;;;38.53;;
47812;SDS011;34221;45.296;9.516;2022-11-20T00:37:24;69.70;;;39.63;;
47812;SDS011;34221;45.296;9.516;2022-11-20T00:37:39;69.88;;;40.50;;
47812;SDS011;34221;45.296;9.516;2022-11-20T00:37:54;69.18;;;40.55;;
47812;SDS011;34221;45.296;9.516;2022-11-20T00:38:09;67.75;;;40.78;;
47812;SDS011;34221;45.296;9.516;2022-11-20T00:38:24;68.82;;;40.50;;
47812;SDS011;34221;45.296;9.516;2022-11-20T00:38:39;65.22;;;39.17;;
47812;SDS011;34221;45.296;9.516;2022-11-20T00:38:55;61.33;;;38.47;;
47812;SDS011;34221;45.296;9.516;2022-11-20T00:39:12;64.80;;;40.08;;
47812;SDS011;34221;45.296;9.516;2022-11-20T00:39:27;68.20;;;40.05;;
47812;SDS011;34221;45.296;9.516;2022-11-20T00:39:42;68.32;;;41.08;;
47812;SDS011;34221;45.296;9.516;2022-11-20T00:39:56;71.78;;;43.25;;
47812;SDS011;34221;45.296;9.516;2022-11-20T00:40:11;76.60;;;42.53;;
47812;SDS011;34221;45.296;9.516;2022-11-20T00:40:27;70.47;;;39.90;;
47812;SDS011;34221;45.296;9.516;2022-11-20T00:40:42;65.57;;;38.85;;
47812;SDS011;34221;45.296;9.516;2022-11-20T00:41:03;73.90;;;40.72;;
47812;SDS011;34221;45.296;9.516;2022-11-20T00:41:24;67.32;;;40.35;;
47812;SDS011;34221;45.296;9.516;2022-11-20T00:41:43;67.65;;;40.90;;
47812;SDS011;34221;45.296;9.516;2022-11-20T00:41:58;63.42;;;39.10;;
47812;SDS011;34221;45.296;9.516;2022-11-20T00:42:13;64.50;;;39.33;;
47812;SDS011;34221;45.296;9.516;2022-11-20T00:42:28;72.25;;;40.35;;
47812;SDS011;34221;45.296;9.516;2022-11-20T00:42:43;68.13;;;38.85;;
47812;SDS011;34221;45.296;9.516;2022-11-20T00:42:58;60.20;;;37.75;;
47812;SDS011;34221;45.296;9.516;2022-11-20T00:43:13;60.17;;;38.55;;
47812;SDS011;34221;45.296;9.516;2022-11-20T00:43:28;63.60;;;39.38;;
47812;SDS011;34221;45.296;9.516;2022-11-20T00:43:43;62.40;;;38.76;;
47812;SDS011;34221;45.296;9.516;2022-11-20T00:43:58;61.50;;;38.30;;
47812;SDS011;34221;45.296;9.516;2022-11-20T00:44:13;66.25;;;38.70;;
47812;SDS011;34221;45.296;9.516;2022-11-20T00:44:28;67.50;;;37.80;;
47812;SDS011;34221;45.296;9.516;2022-11-20T00:44:43;68.18;;;38.08;;
47812;SDS011;34221;45.296;9.516;2022-11-20T00:44:58;63.83;;;37.42;;
47812;SDS011;34221;45.296;9.516;2022-11-20T00:45:13;62.40;;;38.10;;
47812;SDS011;34221;45.296;9.516;2022-11-20T00:45:28;67.50;;;39.10;;
47812;SDS011;34221;45.296;9.516;2022-11-20T00:45:43;62.80;;;37.40;;
47812;SDS011;34221;45.296;9.516;2022-11-20T00:46:22;68.93;;;37.92;;
47812;SDS011;34221;45.296;9.516;2022-11-20T00:46:39;69.50;;;39.40;;
47812;SDS011;34221;45.296;9.516;2022-11-20T00:46:55;64.15;;;38.45;;
47812;SDS011;34221;45.296;9.516;2022-11-20T00:47:10;63.10;;;38.47;;
47812;SDS011;34221;45.296;9.516;2022-11-20T00:47:25;64.43;;;37.47;;
47812;SDS011;34221;45.296;9.516;2022-11-20T00:47:39;67.40;;;37.50;;
47812;SDS011;34221;45.296;9.516;2022-11-20T00:47:54;68.95;;;38.20;;
47812;SDS011;34221;45.296;9.516;2022-11-20T00:48:09;70.15;;;38.00;;
47812;SDS011;34221;45.296;9.516;2022-11-20T00:48:24;70.00;;;38.65;;
47812;SDS011;34221;45.296;9.516;2022-11-20T00:48:40;69.75;;;38.50;;
47812;SDS011;34221;45.296;9.516;2022-11-20T00:48:55;75.32;;;39.05;;
47812;SDS011;34221;45.296;9.516;2022-11-20T00:49:11;69.85;;;37.85;;
47812;SDS011;34221;45.296;9.516;2022-11-20T00:49:26;61.92;;;36.42;;
47812;SDS011;34221;45.296;9.516;2022-11-20T00:49:41;62.63;;;36.90;;
47812;SDS011;34221;45.296;9.516;2022-11-20T00:49:56;59.55;;;36.15;;
47812;SDS011;34221;45.296;9.516;2022-11-20T00:50:10;61.38;;;37.38;;
47812;SDS011;34221;45.296;9.516;2022-11-20T00:50:25;66.88;;;39.08;;
47812;SDS011;34221;45.296;9.516;2022-11-20T00:50:41;62.47;;;38.00;;
47812;SDS011;34221;45.296;9.516;2022-11-20T00:50:56;59.38;;;37.45;;
47812;SDS011;34221;45.296;9.516;2022-11-20T00:51:13;67.45;;;39.63;;
47812;SDS011;34221;45.296;9.516;2022-11-20T00:51:29;71.32;;;40.28;;
47812;SDS011;34221;45.296;9.516;2022-11-20T00:51:44;66.82;;;38.38;;
47812;SDS011;34221;45.296;9.516;2022-11-20T00:52:00;65.25;;;37.47;;
47812;SDS011;34221;45.296;9.516;2022-11-20T00:52:15;68.38;;;38.45;;
47812;SDS011;34221;45.296;9.516;2022-11-20T00:52:30;65.70;;;37.63;;
47812;SDS011;34221;45.296;9.516;2022-11-20T00:52:45;60.47;;;36.85;;
47812;SDS011;34221;45.296;9.516;2022-11-20T00:53:00;63.08;;;37.55;;
47812;SDS011;34221;45.296;9.516;2022-11-20T00:53:14;66.85;;;37.47;;
47812;SDS011;34221;45.296;9.516;2022-11-20T00:53:29;67.72;;;37.35;;
47812;SDS011;34221;45.296;9.516;2022-11-20T00:53:45;64.93;;;38.40;;
47812;SDS011;34221;45.296;9.516;2022-11-20T00:54:01;60.80;;;38.22;;
47812;SDS011;34221;45.296;9.516;2022-11-20T00:54:16;61.22;;;38.17;;
47812;SDS011;34221;45.296;9.516;2022-11-20T00:54:31;65.13;;;38.72;;
47812;SDS011;34221;45.296;9.516;2022-11-20T00:54:46;65.97;;;38.63;;
47812;SDS011;34221;45.296;9.516;2022-11-20T00:55:01;63.88;;;38.42;;
47812;SDS011;34221;45.296;9.516;2022-11-20T00:55:16;61.08;;;37.38;;
47812;SDS011;34221;45.296;9.516;2022-11-20T00:55:31;59.60;;;36.65;;
47812;SDS011;34221;45.296;9.516;2022-11-20T00:55:55;63.75;;;37.42;;
47812;SDS011;34221;45.296;9.516;2022-11-20T00:56:13;63.78;;;38.35;;
47812;SDS011;34221;45.296;9.516;2022-11-20T00:56:30;68.78;;;38.42;;
47812;SDS011;34221;45.296;9.516;2022-11-20T00:56:45;71.53;;;38.60;;
47812;SDS011;34221;45.296;9.516;2022-11-20T00:57:00;66.78;;;38.97;;
47812;SDS011;34221;45.296;9.516;2022-11-20T00:57:16;68.28;;;40.15;;
47812;SDS011;34221;45.296;9.516;2022-11-20T00:57:31;68.70;;;39.95;;
47812;SDS011;34221;45.296;9.516;2022-11-20T00:57:46;65.80;;;38.53;;
47812;SDS011;34221;45.296;9.516;2022-11-20T00:58:01;59.33;;;36.78;;
47812;SDS011;34221;45.296;9.516;2022-11-20T00:58:16;60.85;;;36.90;;
47812;SDS011;34221;45.296;9.516;2022-11-20T00:58:32;64.88;;;37.72;;
47812;SDS011;34221;45.296;9.516;2022-11-20T00:58:49;62.20;;;38.47;;
47812;SDS011;34221;45.296;9.516;2022-11-20T00:59:04;63.25;;;39.45;;
47812;SDS011;34221;45.296;9.516;2022-11-20T00:59:19;67.13;;;39.50;;
47812;SDS011;34221;45.296;9.516;2022-11-20T00:59:34;66.75;;;39.10;;
47812;SDS011;34221;45.296;9.516;2022-11-20T00:59:49;63.85;;;37.83;;
47812;SDS011;34221;45.296;9.516;2022-11-20T01:00:04;67.65;;;38.05;;
47812;SDS011;34221;45.296;9.516;2022-11-20T01:00:20;72.00;;;39.47;;
47812;SDS011;34221;45.296;9.516;2022-11-20T01:00:35;67.95;;;38.67;;
47812;SDS011;34221;45.296;9.516;2022-11-20T01:00:50;67.32;;;39.53;;
47812;SDS011;34221;45.296;9.516;2022-11-20T01:01:07;71.32;;;40.40;;
47812;SDS011;34221;45.296;9.516;2022-11-20T01:01:34;70.15;;;39.53;;
47812;SDS011;34221;45.296;9.516;2022-11-20T01:01:50;66.15;;;38.47;;
47812;SDS011;34221;45.296;9.516;2022-11-20T01:02:05;68.57;;;38.45;;
47812;SDS011;34221;45.296;9.516;2022-11-20T01:02:19;67.30;;;39.55;;
47812;SDS011;34221;45.296;9.516;2022-11-20T01:02:34;64.07;;;39.75;;
47812;SDS011;34221;45.296;9.516;2022-11-20T01:02:49;64.43;;;40.42;;
47812;SDS011;34221;45.296;9.516;2022-11-20T01:03:04;69.35;;;40.85;;
47812;SDS011;34221;45.296;9.516;2022-11-20T01:03:19;71.28;;;40.33;;
47812;SDS011;34221;45.296;9.516;2022-11-20T01:03:35;71.75;;;41.17;;
47812;SDS011;34221;45.296;9.516;2022-11-20T01:03:53;71.00;;;40.55;;
47812;SDS011;34221;45.296;9.516;2022-11-20T01:04:11;66.50;;;38.55;;
47812;SDS011;34221;45.296;9.516;2022-11-20T01:04:26;63.70;;;37.70;;
47812;SDS011;34221;45.296;9.516;2022-11-20T01:04:41;63.72;;;38.53;;
47812;SDS011;34221;45.296;9.516;2022-11-20T01:04:56;66.45;;;39.67;;
47812;SDS011;34221;45.296;9.516;2022-11-20T01:05:11;67.55;;;39.60;;
47812;SDS011;34221;45.296;9.516;2022-11-20T01:05:26;65.25;;;38.30;;
47812;SDS011;34221;45.296;9.516;2022-11-20T01:05:41;67.28;;;39.20;;
47812;SDS011;34221;45.296;9.516;2022-11-20T01:05:59;66.93;;;39.88;;
47812;SDS011;34221;45.296;9.516;2022-11-20T01:06:19;66.20;;;38.95;;
47812;SDS011;34221;45.296;9.516;2022-11-20T01:06:42;66.13;;;40.58;;
47812;SDS011;34221;45.296;9.516;2022-11-20T01:06:57;69.63;;;39.90;;
47812;SDS011;34221;45.296;9.516;2022-11-20T01:07:12;66.93;;;38.43;;
47812;SDS011;34221;45.296;9.516;2022-11-20T01:07:27;61.17;;;37.17;;
47812;SDS011;34221;45.296;9.516;2022-11-20T01:07:42;62.25;;;37.47;;
47812;SDS011;34221;45.296;9.516;2022-11-20T01:07:57;67.25;;;39.42;;
47812;SDS011;34221;45.296;9.516;2022-11-20T01:08:12;67.60;;;39.63;;
47812;SDS011;34221;45.296;9.516;2022-11-20T01:08:31;68.47;;;39.33;;
47812;SDS011;34221;45.296;9.516;2022-11-20T01:08:48;67.65;;;38.70;;
47812;SDS011;34221;45.296;9.516;2022-11-20T01:09:09;63.20;;;38.17;;
47812;SDS011;34221;45.296;9.516;2022-11-20T01:09:27;67.22;;;38.10;;
47812;SDS011;34221;45.296;9.516;2022-11-20T01:09:42;68.20;;;37.20;;
47812;SDS011;34221;45.296;9.516;2022-11-20T01:09:57;63.60;;;36.50;;
47812;SDS011;34221;45.296;9.516;2022-11-20T01:10:11;64.20;;;36.65;;
47812;SDS011;34221;45.296;9.516;2022-11-20T01:10:26;62.17;;;35.75;;
47812;SDS011;34221;45.296;9.516;2022-11-20T01:10:41;57.95;;;36.20;;
47812;SDS011;34221;45.296;9.516;2022-11-20T01:11:00;59.42;;;36.40;;
47812;SDS011;34221;45.296;9.516;2022-11-20T01:11:28;64.38;;;37.33;;
47812;SDS011;34221;45.296;9.516;2022-11-20T01:11:46;63.28;;;37.08;;
47812;SDS011;34221;45.296;9.516;2022-11-20T01:12:01;64.97;;;38.63;;
47812;SDS011;34221;45.296;9.516;2022-11-20T01:12:16;65.95;;;38.58;;
47812;SDS011;34221;45.296;9.516;2022-11-20T01:12:31;72.15;;;38.08;;
47812;SDS011;34221;45.296;9.516;2022-11-20T01:12:45;71.18;;;38.13;;
47812;SDS011;34221;45.296;9.516;2022-11-20T01:13:20;62.38;;;38.00;;
47812;SDS011;34221;45.296;9.516;2022-11-20T01:13:54;63.33;;;37.42;;
47812;SDS011;34221;45.296;9.516;2022-11-20T01:14:11;66.95;;;38.55;;
47812;SDS011;34221;45.296;9.516;2022-11-20T01:14:31;61.50;;;36.88;;
47812;SDS011;34221;45.296;9.516;2022-11-20T01:14:46;61.17;;;35.97;;
47812;SDS011;34221;45.296;9.516;2022-11-20T01:15:02;63.60;;;36.70;;
47812;SDS011;34221;45.296;9.516;2022-11-20T01:15:17;57.80;;;35.97;;
47812;SDS011;34221;45.296;9.516;2022-11-20T01:15:33;58.47;;;36.05;;
47812;SDS011;34221;45.296;9.516;2022-11-20T01:15:48;64.88;;;36.55;;
47812;SDS011;34221;45.296;9.516;2022-11-20T01:16:07;60.58;;;36.15;;
47812;SDS011;34221;45.296;9.516;2022-11-20T01:16:29;61.80;;;35.85;;
47812;SDS011;34221;45.296;9.516;2022-11-20T01:16:55;62.45;;;37.10;;
47812;SDS011;34221;45.296;9.516;2022-11-20T01:17:10;60.90;;;38.45;;
47812;SDS011;34221;45.296;9.516;2022-11-20T01:17:25;61.30;;;37.45;;
47812;SDS011;34221;45.296;9.516;2022-11-20T01:17:40;64.55;;;37.03;;
47812;SDS011;34221;45.296;9.516;2022-11-20T01:17:55;66.40;;;37.83;;
47812;SDS011;34221;45.296;9.516;2022-11-20T01:18:10;64.68;;;37.40;;
47812;SDS011;34221;45.296;9.516;2022-11-20T01:18:25;62.75;;;36.88;;
47812;SDS011;34221;45.296;9.516;2022-11-20T01:18:40;60.08;;;36.60;;
47812;SDS011;34221;45.296;9.516;2022-11-20T01:18:59;57.78;;;36.25;;
47812;SDS011;34221;45.296;9.516;2022-11-20T01:19:17;68.47;;;38.22;;
47812;SDS011;34221;45.296;9.516;2022-11-20T01:19:35;67.55;;;37.63;;
47812;SDS011;34221;45.296;9.516;2022-11-20T01:19:50;62.13;;;36.47;;
47812;SDS011;34221;45.296;9.516;2022-11-20T01:20:05;65.38;;;38.22;;
47812;SDS011;34221;45.296;9.516;2022-11-20T01:20:21;66.50;;;39.25;;
47812;SDS011;34221;45.296;9.516;2022-11-20T01:20:36;62.90;;;37.35;;
47812;SDS011;34221;45.296;9.516;2022-11-20T01:20:51;62.28;;;35.67;;
47812;SDS011;34221;45.296;9.516;2022-11-20T01:21:08;63.42;;;35.90;;
47812;SDS011;34221;45.296;9.516;2022-11-20T01:21:27;61.17;;;35.78;;
47812;SDS011;34221;45.296;9.516;2022-11-20T01:21:51;59.10;;;36.08;;
47812;SDS011;34221;45.296;9.516;2022-11-20T01:22:08;57.45;;;36.33;;
47812;SDS011;34221;45.296;9.516;2022-11-20T01:22:23;57.90;;;35.50;;
47812;SDS011;34221;45.296;9.516;2022-11-20T01:22:38;60.95;;;36.22;;
47812;SDS011;34221;45.296;9.516;2022-11-20T01:22:53;61.83;;;36.53;;
47812;SDS011;34221;45.296;9.516;2022-11-20T01:23:08;60.75;;;35.58;;
47812;SDS011;34221;45.296;9.516;2022-11-20T01:23:23;61.47;;;36.08;;
47812;SDS011;34221;45.296;9.516;2022-11-20T01:23:39;64.85;;;36.83;;
47812;SDS011;34221;45.296;9.516;2022-11-20T01:23:56;61.10;;;36.00;;
47812;SDS011;34221;45.296;9.516;2022-11-20T01:24:12;57.72;;;36.20;;
47812;SDS011;34221;45.296;9.516;2022-11-20T01:24:29;60.05;;;35.97;;
47812;SDS011;34221;45.296;9.516;2022-11-20T01:24:44;64.70;;;36.07;;
47812;SDS011;34221;45.296;9.516;2022-11-20T01:24:59;63.57;;;36.50;;
47812;SDS011;34221;45.296;9.516;2022-11-20T01:25:14;64.30;;;37.58;;
47812;SDS011;34221;45.296;9.516;2022-11-20T01:25:29;63.90;;;37.78;;
47812;SDS011;34221;45.296;9.516;2022-11-20T01:25:44;64.20;;;37.15;;
47812;SDS011;34221;45.296;9.516;2022-11-20T01:26:00;62.70;;;35.55;;
47812;SDS011;34221;45.296;9.516;2022-11-20T01:26:22;58.50;;;36.47;;
47812;SDS011;34221;45.296;9.516;2022-11-20T01:26:49;64.47;;;36.97;;
47812;SDS011;34221;45.296;9.516;2022-11-20T01:27:05;66.60;;;36.83;;
47812;SDS011;34221;45.296;9.516;2022-11-20T01:27:20;63.03;;;37.10;;
47812;SDS011;34221;45.296;9.516;2022-11-20T01:27:35;63.03;;;37.83;;
47812;SDS011;34221;45.296;9.516;2022-11-20T01:27:50;60.80;;;36.53;;
47812;SDS011;34221;45.296;9.516;2022-11-20T01:28:05;62.80;;;36.53;;
47812;SDS011;34221;45.296;9.516;2022-11-20T01:28:20;65.43;;;36.95;;
47812;SDS011;34221;45.296;9.516;2022-11-20T01:28:35;62.20;;;36.70;;
47812;SDS011;34221;45.296;9.516;2022-11-20T01:28:51;59.92;;;37.53;;
47812;SDS011;34221;45.296;9.516;2022-11-20T01:29:10;63.15;;;37.63;;
47812;SDS011;34221;45.296;9.516;2022-11-20T01:29:33;65.63;;;38.17;;
47812;SDS011;34221;45.296;9.516;2022-11-20T01:29:47;64.65;;;38.17;;
47812;SDS011;34221;45.296;9.516;2022-11-20T01:30:02;64.93;;;37.50;;
47812;SDS011;34221;45.296;9.516;2022-11-20T01:30:18;64.57;;;36.90;;
47812;SDS011;34221;45.296;9.516;2022-11-20T01:30:33;61.10;;;36.43;;
47812;SDS011;34221;45.296;9.516;2022-11-20T01:30:48;64.70;;;36.67;;
47812;SDS011;34221;45.296;9.516;2022-11-20T01:31:10;66.20;;;37.10;;
47812;SDS011;34221;45.296;9.516;2022-11-20T01:31:33;66.55;;;36.92;;
47812;SDS011;34221;45.296;9.516;2022-11-20T01:31:51;60.22;;;36.47;;
47812;SDS011;34221;45.296;9.516;2022-11-20T01:32:06;55.78;;;35.10;;
47812;SDS011;34221;45.296;9.516;2022-11-20T01:32:21;57.97;;;35.17;;
47812;SDS011;34221;45.296;9.516;2022-11-20T01:32:36;58.58;;;35.72;;
47812;SDS011;34221;45.296;9.516;2022-11-20T01:32:51;60.72;;;35.45;;
47812;SDS011;34221;45.296;9.516;2022-11-20T01:33:06;64.03;;;35.75;;
47812;SDS011;34221;45.296;9.516;2022-11-20T01:33:21;64.38;;;35.75;;
47812;SDS011;34221;45.296;9.516;2022-11-20T01:33:36;66.88;;;36.67;;
47812;SDS011;34221;45.296;9.516;2022-11-20T01:33:52;66.15;;;37.38;;
47812;SDS011;34221;45.296;9.516;2022-11-20T01:34:10;59.95;;;37.08;;